createdAt,value
2019-05-26T00:00:15.410Z,997.2
2019-05-26T00:03:15.357Z,997.1
2019-05-26T00:06:15.007Z,997.1
2019-05-26T00:09:15.670Z,997.0
2019-05-26T00:12:16.090Z,997.0
2019-05-26T00:15:15.277Z,997.0
2019-05-26T00:18:15.048Z,997.0
2019-05-26T00:21:15.673Z,997.0
2019-05-26T00:24:15.481Z,997.0
2019-05-26T00:27:15.789Z,997.0
2019-05-26T00:30:15.498Z,997.0
2019-05-26T00:33:15.245Z,997.0
2019-05-26T00:36:15.279Z,996.9
2019-05-26T00:39:15.625Z,996.9
2019-05-26T00:42:15.501Z,996.9
2019-05-26T00:45:14.883Z,997.0
2019-05-26T00:48:15.306Z,996.9
2019-05-26T00:51:15.100Z,996.9
2019-05-26T00:54:16.701Z,996.9
2019-05-26T00:57:15.271Z,997.0
2019-05-26T01:00:15.861Z,997.0
2019-05-26T01:03:15.652Z,997.0
2019-05-26T01:06:15.134Z,997.0
2019-05-26T01:09:15.918Z,997.0
2019-05-26T01:12:15.444Z,997.0
2019-05-26T01:15:15.831Z,997.0
2019-05-26T01:18:15.557Z,997.0
2019-05-26T01:21:15.641Z,997.1
2019-05-26T01:24:14.927Z,997.1
2019-05-26T01:27:15.398Z,997.1
2019-05-26T01:30:15.603Z,997.1
2019-05-26T01:33:15.361Z,997.1
2019-05-26T01:36:15.824Z,997.1
2019-05-26T01:39:15.282Z,997.0
2019-05-26T01:42:15.484Z,997.1
2019-05-26T01:45:15.774Z,997.0
2019-05-26T01:48:15.165Z,997.1
2019-05-26T01:51:15.640Z,997.0
2019-05-26T01:54:14.968Z,997.1
2019-05-26T01:57:15.642Z,997.0
2019-05-26T02:00:14.994Z,997.0
2019-05-26T02:03:16.136Z,997.0
2019-05-26T02:06:15.083Z,997.0
2019-05-26T02:09:15.357Z,997.0
2019-05-26T02:12:15.682Z,997.0
2019-05-26T02:15:15.099Z,997.0
2019-05-26T02:18:14.926Z,997.1
2019-05-26T02:21:15.778Z,997.0
2019-05-26T02:24:15.130Z,997.0
2019-05-26T02:27:15.659Z,997.0
2019-05-26T02:30:15.407Z,997.0
2019-05-26T02:33:15.342Z,997.0
2019-05-26T02:36:15.822Z,997.0
2019-05-26T02:39:15.018Z,996.9
2019-05-26T02:42:15.408Z,996.9
2019-05-26T02:45:15.168Z,996.9
2019-05-26T02:48:15.842Z,996.9
2019-05-26T02:51:15.842Z,996.9
2019-05-26T02:54:15.471Z,996.8
2019-05-26T02:57:15.272Z,996.8
2019-05-26T03:00:15.066Z,996.9
2019-05-26T03:03:15.110Z,996.9
2019-05-26T03:06:15.647Z,996.9
2019-05-26T03:09:22.732Z,996.9
2019-05-26T03:12:15.493Z,996.9
2019-05-26T03:15:15.388Z,996.9
2019-05-26T03:18:15.318Z,996.9
2019-05-26T03:21:14.961Z,997.0
2019-05-26T03:24:15.165Z,997.0
2019-05-26T03:27:15.287Z,997.0
2019-05-26T03:30:15.011Z,997.0
2019-05-26T03:33:14.905Z,997.0
2019-05-26T03:36:15.802Z,997.0
2019-05-26T03:39:15.713Z,997.0
2019-05-26T03:42:15.290Z,997.0
2019-05-26T03:45:16.691Z,997.0
2019-05-26T03:48:15.083Z,997.0
2019-05-26T03:51:14.883Z,997.0
2019-05-26T03:54:15.295Z,996.9
2019-05-26T03:57:14.962Z,996.9
2019-05-26T04:00:15.673Z,997.0
2019-05-26T04:03:15.180Z,997.0
2019-05-26T04:06:15.520Z,996.9
2019-05-26T04:09:14.812Z,996.9
2019-05-26T04:12:15.296Z,996.9
2019-05-26T04:15:15.841Z,996.9
2019-05-26T04:18:15.225Z,996.9
2019-05-26T04:21:15.687Z,996.9
2019-05-26T04:24:14.979Z,996.9
2019-05-26T04:27:15.260Z,996.9
2019-05-26T04:30:15.777Z,996.9
2019-05-26T04:33:15.304Z,996.9
2019-05-26T04:36:17.001Z,997.0
2019-05-26T04:39:15.526Z,997.0
2019-05-26T04:42:20.020Z,997.0
2019-05-26T04:45:15.609Z,997.0
2019-05-26T04:48:15.489Z,997.0
2019-05-26T04:51:15.973Z,997.0
2019-05-26T04:54:15.712Z,997.0
2019-05-26T04:57:15.265Z,997.0
2019-05-26T05:00:15.183Z,997.0
2019-05-26T05:03:14.950Z,997.1
2019-05-26T05:06:15.523Z,997.0
2019-05-26T05:09:15.685Z,997.0
2019-05-26T05:12:15.725Z,997.1
2019-05-26T05:15:15.104Z,997.0
2019-05-26T05:18:14.956Z,997.1
2019-05-26T05:21:15.300Z,997.1
2019-05-26T05:24:15.707Z,997.1
2019-05-26T05:27:14.959Z,997.0
2019-05-26T05:30:15.361Z,997.1
2019-05-26T05:33:14.974Z,997.1
2019-05-26T05:36:15.590Z,997.2
2019-05-26T05:39:14.969Z,997.1
2019-05-26T05:42:15.436Z,997.1
2019-05-26T05:45:15.788Z,997.1
2019-05-26T05:48:15.424Z,997.1
2019-05-26T05:51:15.128Z,997.1
2019-05-26T05:54:15.570Z,997.1
2019-05-26T05:57:15.161Z,997.1
2019-05-26T06:00:15.512Z,997.1
2019-05-26T06:03:18.595Z,997.1
2019-05-26T06:06:15.528Z,997.1
2019-05-26T06:09:14.899Z,997.0
2019-05-26T06:12:15.341Z,997.1
2019-05-26T06:15:17.036Z,997.0
2019-05-26T06:18:15.607Z,997.0
2019-05-26T06:21:15.207Z,997.1
2019-05-26T06:24:15.788Z,997.1
2019-05-26T06:27:15.243Z,997.1
2019-05-26T06:30:15.601Z,997.1
2019-05-26T06:33:15.170Z,997.2
2019-05-26T06:36:15.161Z,997.2
2019-05-26T06:39:15.748Z,997.1
2019-05-26T06:42:15.292Z,997.1
2019-05-26T06:45:15.785Z,997.1
2019-05-26T06:48:15.387Z,997.1
2019-05-26T06:51:15.869Z,997.1
2019-05-26T06:54:15.574Z,997.1
2019-05-26T06:57:14.958Z,997.1
2019-05-26T07:00:15.291Z,997.2
2019-05-26T07:03:15.151Z,997.2
2019-05-26T07:06:15.897Z,997.2
2019-05-26T07:09:15.727Z,997.2
2019-05-26T07:12:14.940Z,997.2
2019-05-26T07:15:15.481Z,997.2
2019-05-26T07:18:15.069Z,997.2
2019-05-26T07:21:15.357Z,997.2
2019-05-26T07:24:15.835Z,997.2
2019-05-26T07:27:15.095Z,997.2
2019-05-26T07:30:15.607Z,997.1
2019-05-26T07:33:15.076Z,997.1
2019-05-26T07:36:15.555Z,997.1
2019-05-26T07:39:16.002Z,997.1
2019-05-26T07:42:15.236Z,997.1
2019-05-26T07:45:15.797Z,997.2
2019-05-26T07:48:15.258Z,997.2
2019-05-26T07:51:15.839Z,997.1
2019-05-26T07:54:25.036Z,997.1
2019-05-26T07:57:15.498Z,997.1
2019-05-26T08:00:15.150Z,997.2
2019-05-26T08:03:15.015Z,997.2
2019-05-26T08:06:15.565Z,997.2
2019-05-26T08:09:15.083Z,997.2
2019-05-26T08:12:25.954Z,997.2
2019-05-26T08:15:15.304Z,997.2
2019-05-26T08:18:15.000Z,997.1
2019-05-26T08:21:15.746Z,997.1
2019-05-26T08:24:15.645Z,997.1
2019-05-26T08:27:15.095Z,997.1
2019-05-26T08:30:15.085Z,997.1
2019-05-26T08:33:15.965Z,997.2
2019-05-26T08:36:15.994Z,997.2
2019-05-26T08:39:15.485Z,997.1
2019-05-26T08:42:26.831Z,997.1
2019-05-26T08:45:15.652Z,997.1
2019-05-26T08:48:15.496Z,997.1
2019-05-26T08:51:15.245Z,997.0
2019-05-26T08:54:15.922Z,997.0
2019-05-26T08:57:15.520Z,997.1
2019-05-26T09:00:16.396Z,997.0
2019-05-26T09:03:15.550Z,996.9
2019-05-26T09:06:15.242Z,996.9
2019-05-26T09:09:14.993Z,996.9
2019-05-26T09:12:15.139Z,996.9
2019-05-26T09:15:15.416Z,996.8
2019-05-26T09:18:15.767Z,996.9
2019-05-26T09:21:15.958Z,996.8
2019-05-26T09:24:15.141Z,996.9
2019-05-26T09:27:15.318Z,996.8
2019-05-26T09:30:15.192Z,996.7
2019-05-26T09:33:15.481Z,996.7
2019-05-26T09:36:15.667Z,996.7
2019-05-26T09:39:15.426Z,996.6
2019-05-26T09:42:16.186Z,996.5
2019-05-26T09:45:15.835Z,996.6
2019-05-26T09:48:15.270Z,996.6
2019-05-26T09:51:15.425Z,996.6
2019-05-26T09:54:15.856Z,996.5
2019-05-26T09:57:15.989Z,996.5
2019-05-26T10:00:16.299Z,996.6
2019-05-26T10:03:15.349Z,996.5
2019-05-26T10:06:16.047Z,996.5
2019-05-26T10:09:15.777Z,996.5
2019-05-26T10:12:15.685Z,996.5
2019-05-26T10:15:15.513Z,996.5
2019-05-26T10:18:15.438Z,996.5
2019-05-26T10:21:15.363Z,996.4
2019-05-26T10:24:16.243Z,996.4
2019-05-26T10:27:15.964Z,996.5
2019-05-26T10:30:16.003Z,996.4
2019-05-26T10:33:16.176Z,996.4
2019-05-26T10:36:15.712Z,996.3
2019-05-26T10:39:15.832Z,996.2
2019-05-26T10:42:15.628Z,996.3
2019-05-26T10:45:15.521Z,996.3
2019-05-26T10:48:16.103Z,996.2
2019-05-26T10:51:15.921Z,996.1
2019-05-26T10:54:15.710Z,996.2
2019-05-26T11:03:15.947Z,996.1
2019-05-26T11:06:15.908Z,995.9
2019-05-26T11:09:15.928Z,995.9
2019-05-26T11:12:15.910Z,995.9
2019-05-26T11:15:15.640Z,995.9
2019-05-26T11:18:15.492Z,995.8
2019-05-26T11:21:16.033Z,995.8
2019-05-26T11:24:15.707Z,995.7
2019-05-26T11:27:15.427Z,995.6
2019-05-26T11:30:15.419Z,995.7
2019-05-26T11:33:15.969Z,995.6
2019-05-26T11:36:15.565Z,995.5
2019-05-26T11:39:15.417Z,995.5
2019-05-26T11:42:15.806Z,995.5
2019-05-26T11:45:15.344Z,995.4
2019-05-26T11:48:15.896Z,995.4
2019-05-26T11:51:15.084Z,995.4
2019-05-26T11:54:15.054Z,995.3
2019-05-26T11:57:15.132Z,995.3
2019-05-26T12:00:16.020Z,995.3
2019-05-26T12:03:15.835Z,995.3
2019-05-26T12:06:15.422Z,995.3
2019-05-26T12:09:15.208Z,995.3
2019-05-26T12:12:15.942Z,995.2
2019-05-26T12:15:15.481Z,995.2
2019-05-26T12:18:15.380Z,995.1
2019-05-26T12:21:15.829Z,995.0
2019-05-26T12:24:15.398Z,995.1
2019-05-26T12:27:14.896Z,995.1
2019-05-26T12:30:15.510Z,995.0
2019-05-26T12:33:15.789Z,994.9
2019-05-26T12:36:15.788Z,994.9
2019-05-26T12:39:15.346Z,994.8
2019-05-26T12:42:17.099Z,994.8
2019-05-26T12:45:15.230Z,994.8
2019-05-26T12:48:15.767Z,994.7
2019-05-26T12:51:15.705Z,994.7
2019-05-26T12:54:15.572Z,994.7
2019-05-26T12:57:15.436Z,994.7
2019-05-26T13:00:14.988Z,994.7
2019-05-26T13:03:15.802Z,994.7
2019-05-26T13:06:17.591Z,994.7
2019-05-26T13:09:15.364Z,994.7
2019-05-26T13:12:15.054Z,994.6
2019-05-26T13:15:20.615Z,994.6
2019-05-26T13:18:15.550Z,994.6
2019-05-26T13:21:14.897Z,994.7
2019-05-26T13:24:18.537Z,994.6
2019-05-26T13:27:15.305Z,994.5
2019-05-26T13:30:15.823Z,994.6
2019-05-26T13:33:14.983Z,994.6
2019-05-26T13:36:15.359Z,994.5
2019-05-26T13:39:16.014Z,994.4
2019-05-26T13:42:15.578Z,994.4
2019-05-26T13:45:22.360Z,994.4
2019-05-26T13:48:14.967Z,994.4
2019-05-26T13:51:15.886Z,994.4
2019-05-26T13:54:15.741Z,994.4
2019-05-26T13:57:15.272Z,994.3
2019-05-26T14:00:15.102Z,994.3
2019-05-26T14:03:14.921Z,994.3
2019-05-26T14:06:15.889Z,994.3
2019-05-26T14:09:15.806Z,994.2
2019-05-26T14:12:20.362Z,994.2
2019-05-26T14:15:15.310Z,994.3
2019-05-26T14:18:18.133Z,994.2
2019-05-26T14:21:15.385Z,994.1
2019-05-26T14:24:15.809Z,994.1
2019-05-26T14:27:15.541Z,994.1
2019-05-26T14:30:15.072Z,994.1
2019-05-26T14:33:17.036Z,994.1
2019-05-26T14:36:15.609Z,994.0
2019-05-26T14:39:15.265Z,994.1
2019-05-26T14:42:14.983Z,994.0
2019-05-26T14:45:15.591Z,994.0
2019-05-26T14:48:15.521Z,993.9
2019-05-26T14:51:15.539Z,993.9
2019-05-26T14:54:15.789Z,993.9
2019-05-26T14:57:15.469Z,993.8
2019-05-26T15:00:15.606Z,993.8
2019-05-26T15:03:15.580Z,993.8
2019-05-26T15:06:15.344Z,993.7
2019-05-26T15:09:24.778Z,993.7
2019-05-26T15:12:15.721Z,993.7
2019-05-26T15:15:15.289Z,993.6
2019-05-26T15:18:14.932Z,993.6
2019-05-26T15:21:18.068Z,993.6
2019-05-26T15:24:15.810Z,993.6
2019-05-26T15:27:15.670Z,993.6
2019-05-26T15:30:15.119Z,993.6
2019-05-26T15:33:15.266Z,993.5
2019-05-26T15:39:15.172Z,993.5
2019-05-26T15:42:15.011Z,993.4
2019-05-26T15:45:15.814Z,993.4
2019-05-26T15:48:15.447Z,993.4
2019-05-26T15:51:15.063Z,993.4
2019-05-26T15:54:15.092Z,993.4
2019-05-26T15:57:15.568Z,993.4
2019-05-26T16:00:15.218Z,993.4
2019-05-26T16:03:15.341Z,993.3
2019-05-26T16:06:15.059Z,993.3
2019-05-26T16:09:15.500Z,993.3
2019-05-26T16:12:15.030Z,993.2
2019-05-26T16:15:15.838Z,993.2
2019-05-26T16:18:15.401Z,993.2
2019-05-26T16:21:27.606Z,993.2
2019-05-26T16:24:14.942Z,993.2
2019-05-26T16:27:18.783Z,993.2
2019-05-26T16:30:15.634Z,993.1
2019-05-26T16:33:15.049Z,993.1
2019-05-26T16:36:15.430Z,993.1
2019-05-26T16:39:15.767Z,993.0
2019-05-26T16:42:14.884Z,993.0
2019-05-26T16:45:15.460Z,993.0
2019-05-26T16:48:14.999Z,993.0
2019-05-26T16:51:15.453Z,993.0
2019-05-26T16:54:15.091Z,993.0
2019-05-26T16:57:15.695Z,993.0
2019-05-26T17:00:15.328Z,993.0
2019-05-26T17:03:15.153Z,993.0
2019-05-26T17:06:15.735Z,993.0
2019-05-26T17:09:15.332Z,993.0
2019-05-26T17:12:15.210Z,992.9
2019-05-26T17:15:14.961Z,992.9
2019-05-26T17:18:15.640Z,992.9
2019-05-26T17:21:15.451Z,993.0
2019-05-26T17:24:15.072Z,992.9
2019-05-26T17:27:15.765Z,992.9
2019-05-26T17:30:15.440Z,992.9
2019-05-26T17:33:15.354Z,993.0
2019-05-26T17:36:15.053Z,992.9
2019-05-26T17:39:15.541Z,992.9
2019-05-26T17:42:15.055Z,992.9
2019-05-26T17:45:15.712Z,992.9
2019-05-26T17:48:15.434Z,992.9
2019-05-26T17:51:15.274Z,992.9
2019-05-26T17:54:15.016Z,992.9
2019-05-26T17:57:15.560Z,992.8
2019-05-26T18:00:15.258Z,992.9
2019-05-26T18:03:15.114Z,992.9
2019-05-26T18:06:15.250Z,992.9
2019-05-26T18:09:15.889Z,992.9
2019-05-26T18:12:15.807Z,992.8
2019-05-26T18:15:16.765Z,992.8
2019-05-26T18:18:31.009Z,992.8
2019-05-26T18:30:15.711Z,992.9
2019-05-26T18:33:15.730Z,992.8
2019-05-26T18:36:15.420Z,992.8
2019-05-26T18:39:15.307Z,992.8
2019-05-26T18:42:14.933Z,992.9
2019-05-26T18:45:15.512Z,992.8
2019-05-26T18:48:15.358Z,992.8
2019-05-26T18:51:14.925Z,992.8
2019-05-26T18:54:15.565Z,992.8
2019-05-26T18:57:15.189Z,992.7
2019-05-26T19:00:15.664Z,992.7
2019-05-26T19:03:15.822Z,992.7
2019-05-26T19:06:15.482Z,992.7
2019-05-26T19:09:15.200Z,992.7
2019-05-26T19:12:14.932Z,992.7
2019-05-26T19:15:15.659Z,992.7
2019-05-26T19:18:20.075Z,992.7
2019-05-26T19:33:15.934Z,992.7
2019-05-26T19:36:14.981Z,992.7
2019-05-26T19:39:15.782Z,992.7
2019-05-26T19:42:15.468Z,992.7
2019-05-26T19:45:15.198Z,992.7
2019-05-26T19:48:15.121Z,992.7
2019-05-26T19:51:15.475Z,992.7
2019-05-26T19:54:14.962Z,992.7
2019-05-26T19:57:15.793Z,992.7
2019-05-26T20:00:15.389Z,992.7
2019-05-26T20:03:15.947Z,992.8
2019-05-26T20:06:15.056Z,992.7
2019-05-26T20:09:15.593Z,992.7
2019-05-26T20:12:16.839Z,992.7
2019-05-26T20:15:15.692Z,992.7
2019-05-26T20:18:15.490Z,992.7
2019-05-26T20:21:14.994Z,992.8
2019-05-26T20:24:15.596Z,992.7
2019-05-26T20:27:15.201Z,992.7
2019-05-26T20:30:15.211Z,992.7
2019-05-26T20:33:15.785Z,992.6
2019-05-26T20:36:15.432Z,992.7
2019-05-26T20:39:15.199Z,992.7
2019-05-26T20:42:15.785Z,992.6
2019-05-26T20:45:15.511Z,992.7
2019-05-26T20:48:15.382Z,992.7
2019-05-26T20:51:15.589Z,992.7
2019-05-26T20:54:15.241Z,992.7
2019-05-26T20:57:15.895Z,992.7
2019-05-26T21:00:15.761Z,992.6
2019-05-26T21:03:15.801Z,992.6
2019-05-26T21:06:15.316Z,992.6
2019-05-26T21:09:15.871Z,992.6
2019-05-26T21:12:15.859Z,992.6
2019-05-26T21:15:16.075Z,992.5
2019-05-26T21:18:15.494Z,992.4
2019-05-26T21:21:15.950Z,992.4
2019-05-26T21:24:15.603Z,992.5
2019-05-26T21:27:15.851Z,992.4
2019-05-26T21:30:15.666Z,992.4
2019-05-26T21:33:15.728Z,992.4
2019-05-26T21:36:15.645Z,992.4
2019-05-26T21:39:15.510Z,992.4
2019-05-26T21:42:16.141Z,992.3
2019-05-26T21:45:15.124Z,992.3
2019-05-26T21:48:15.637Z,992.3
2019-05-26T21:51:15.813Z,992.3
2019-05-26T21:54:15.525Z,992.3
2019-05-26T21:57:15.215Z,992.3
2019-05-26T22:00:15.204Z,992.3
2019-05-26T22:03:15.854Z,992.2
2019-05-26T22:06:15.545Z,992.2
2019-05-26T22:09:15.219Z,992.2
2019-05-26T22:12:15.132Z,992.2
2019-05-26T22:15:15.809Z,992.2
2019-05-26T22:18:15.372Z,992.1
2019-05-26T22:21:14.999Z,992.2
2019-05-26T22:24:15.901Z,992.1
2019-05-26T22:27:15.590Z,992.1
2019-05-26T22:30:15.535Z,992.0
2019-05-26T22:33:15.213Z,992.1
2019-05-26T22:36:15.014Z,992.0
2019-05-26T22:39:15.740Z,992.1
2019-05-26T22:42:15.349Z,992.0
2019-05-26T22:45:15.214Z,992.0
2019-05-26T22:48:15.982Z,992.0
2019-05-26T22:51:15.628Z,992.0
2019-05-26T22:54:15.223Z,992.0
2019-05-26T22:57:15.712Z,991.9
2019-05-26T23:00:15.310Z,991.9
2019-05-26T23:03:15.190Z,991.9
2019-05-26T23:06:15.912Z,991.8
2019-05-26T23:09:15.815Z,991.8
2019-05-26T23:12:15.367Z,991.8
2019-05-26T23:15:15.827Z,991.8
2019-05-26T23:18:15.505Z,991.8
2019-05-26T23:21:15.076Z,991.8
2019-05-26T23:24:15.843Z,991.8
2019-05-26T23:27:15.830Z,991.8
2019-05-26T23:30:15.443Z,991.8
2019-05-26T23:33:15.137Z,991.8
2019-05-26T23:36:15.581Z,991.8
2019-05-26T23:39:15.011Z,991.7
2019-05-26T23:42:15.636Z,991.7
2019-05-26T23:45:15.506Z,991.7
2019-05-26T23:48:15.239Z,991.7
2019-05-26T23:51:15.925Z,991.7
2019-05-26T23:54:15.545Z,991.6
2019-05-26T23:57:15.274Z,991.6
